首页
METAR-TAF:

METAR-TAF

机场 :

斯图加特机场

斯图加特, 德国

纬度: 48-41N, 经度: 009-13E, 海拔: 396米

当前天气观测

该预报发布于27分钟前的21:20 UTC
风速1节,风向多变
温度 23°C
湿度 65%
气压 1017 hPa
能见度10公里或以上
1500米以下无云,无积雨云

METAR: EDDS 112120Z VRB01KT CAVOK 23/16 Q1017

时间: 23:47 (21:47 UTC)

预报

该预报发布于4小时和47分钟前的17:00 UTC
预报有效从11日的 18点(UTC)到 12日的 18点(UTC)
风速4节,风向西转西南
能见度10公里或以上
1500米以下无云,无积雨云
成为
从 12日的 08点(UTC)到 12日的 11点(UTC)
风速5节,风向
几率 30% :
短暂存在
从 12日的 11点(UTC)到 12日的 18点(UTC)
风速20节,风向南转南东,有时为35节阵风
散云层高于6000英尺, 积雨云.
雷暴, 雨

TAF: EDDS 111700Z 1118/1218 25004KT CAVOK BECMG 1208/1211 08005KT PROB30 TEMPO 1211/1218 16020G35KT TSRA SCT060CB

超过4000个机场的气象观测和天气预报(METAR&TAF报告)。

可查询的气象台以黄色和红色小点在地图上表示。

将鼠标移到小点上方,可查看气象台名称。

然后点击查看天气观测和预报。

如需切换地图:点击带黑十字的绿色按钮放大地图;点击带横线的绿色按钮缩小地图;或者点击绿色箭头查看邻近地区的地图。


METAR-TAF: